This is the latest recevied weather packets stored in our database for station/object IW8PDD-3. If no packets are shown the sender has not sent any weather packets the latest 10 day(s).
| Time | Temp. | Humidity | Pressure | Rain* | Wind** | Luminosity | Snow |
|---|---|---|---|---|---|---|---|
| 1777905256 | 28.33° C | 43% | 1018.6 hPa | - | - | - | - |
| 1777904052 | 27.22° C | 43% | 1018.8 hPa | - | - | - | - |
| 1777902848 | 26.67° C | 43% | 1019.1 hPa | - | - | - | - |
| 1777901644 | 26.67° C | 43% | 1019.2 hPa | - | - | - | - |
| 1777900440 | 25.56° C | 45% | 1019.3 hPa | - | - | - | - |
| 1777898033 | 23.89° C | 47% | 1019.7 hPa | - | - | - | - |
| 1777896830 | 25° C | 47% | 1019.7 hPa | - | - | - | - |
| 1777895626 | 25° C | 49% | 1019.7 hPa | - | - | - | - |
| 1777894423 | 23.89° C | 51% | 1019.9 hPa | - | - | - | - |
| 1777892016 | 21.11° C | 56% | 1020.2 hPa | - | - | - | - |
| 1777890362 | 20° C | 58% | 1020.5 hPa | - | - | - | - |
| 1777889159 | 19.44° C | 59% | 1020.6 hPa | - | - | - | - |
| 1777887955 | 19.44° C | 59% | 1020.6 hPa | - | - | - | - |
| 1777886752 | 19.44° C | 60% | 1020.5 hPa | - | - | - | - |
| 1777884342 | 18.33° C | 61% | 1020.6 hPa | - | - | - | - |
| 1777883139 | 18.33° C | 61% | 1020.7 hPa | - | - | - | - |
| 1777881936 | 17.78° C | 61% | 1020.8 hPa | - | - | - | - |
| 1777880732 | 18.33° C | 60% | 1020.8 hPa | - | - | - | - |
| 1777879529 | 17.78° C | 59% | 1020.8 hPa | - | - | - | - |
| 1777878325 | 17.78° C | 58% | 1020.7 hPa | - | - | - | - |
| 1777877122 | 17.78° C | 57% | 1020.8 hPa | - | - | - | - |
| 1777875918 | 17.78° C | 55% | 1020.6 hPa | - | - | - | - |
| 1777874715 | 17.22° C | 55% | 1020.5 hPa | - | - | - | - |
| 1777872308 | 16.67° C | 53% | 1020.2 hPa | - | - | - | - |
| 1777871104 | 16.11° C | 52% | 1020.1 hPa | - | - | - | - |
* Rain since midnight (hover to see other rain measurements)
** Current wind speed in m/s (hover to see current wind gust speed)